Portsmouth, Iowa
Current Conditions -  °F | °C
As of 7:15 AM on Sunday 21 Dec 2014 (Local Time) from KHNR Reporting Station
Haze Haze  
Wind Chill: 26°   Ceiling: 300
Heat Index: 36°   Visibility: 1.7mi
Dew Point: 36°   Wind: 15mph
Humidity: 100%   Direction: 180°S
Pressure: 29.93"   Gusts: NA
Location:  41.65°N, 95.52°W
Report Text: KHNR 211315Z AUTO 18013KT 1 3/4SM BR OVC003 02/02 A2993 RMK AO2
Loading
Personal Weather Stations






























Interactive Weather Map New forecast layout! Learn more

10-Day Weather Forecast

Advertisements
Track Severe Weather on mobile